createdAt,value
2023-04-14T00:03:15.588Z,21.8
2023-04-14T00:09:08.565Z,21.8
2023-04-14T00:15:01.149Z,21.8
2023-04-14T00:20:53.869Z,21.8
2023-04-14T00:26:45.285Z,21.8
2023-04-14T00:32:21.853Z,21.6
2023-04-14T00:38:13.539Z,22.2
2023-04-14T00:44:05.645Z,22
2023-04-14T00:49:57.138Z,21.9
2023-04-14T00:55:33.836Z,21.9
2023-04-14T01:01:10.632Z,21.8
2023-04-14T01:07:04.097Z,21.8
2023-04-14T01:12:55.505Z,21.8
2023-04-14T01:18:47.657Z,21.7
2023-04-14T01:24:23.482Z,21.6
2023-04-14T01:30:15.260Z,22.2
2023-04-14T01:36:07.933Z,22
2023-04-14T01:41:59.345Z,21.9
2023-04-14T01:47:36.033Z,21.9
2023-04-14T01:53:28.780Z,21.8
2023-04-14T01:59:20.297Z,21.8
2023-04-14T02:05:13.460Z,21.8
2023-04-14T02:11:04.815Z,21.6
2023-04-14T02:16:55.881Z,21.8
2023-04-14T02:22:47.555Z,22.1
2023-04-14T02:28:39.264Z,21.9
2023-04-14T02:34:29.905Z,21.9
2023-04-14T02:40:20.883Z,21.9
2023-04-14T02:46:12.503Z,21.9
2023-04-14T02:52:03.795Z,21.8
2023-04-14T02:57:55.455Z,21.8
2023-04-14T03:03:48.561Z,21.6
2023-04-14T03:09:39.306Z,21.9
2023-04-14T03:15:15.597Z,22.1
2023-04-14T03:20:51.407Z,21.9
2023-04-14T03:26:43.751Z,21.8
2023-04-14T03:32:35.536Z,21.8
2023-04-14T03:38:27.018Z,21.8
2023-04-14T03:44:19.340Z,21.8
2023-04-14T03:50:15.659Z,21.8
2023-04-14T03:56:09.419Z,21.6
2023-04-14T04:02:01.583Z,22.1
2023-04-14T04:07:55.510Z,22.1
2023-04-14T04:13:47.765Z,21.9
2023-04-14T04:19:40.902Z,21.9
2023-04-14T04:25:31.963Z,21.9
2023-04-14T04:31:38.578Z,21.9
2023-04-14T04:37:31.143Z,21.9
2023-04-14T04:43:07.295Z,21.8
2023-04-14T04:48:43.878Z,21.6
2023-04-14T04:54:19.402Z,22.1
2023-04-14T04:59:41.522Z,22
2023-04-14T05:05:19.288Z,21.9
2023-04-14T05:10:57.572Z,21.8
2023-04-14T05:16:34.240Z,21.8
2023-04-14T05:22:10.358Z,21.8
2023-04-14T05:28:24.720Z,21.8
2023-04-14T05:33:48.745Z,21.7
2023-04-14T05:39:25.618Z,21.5
2023-04-14T05:45:17.358Z,22.1
2023-04-14T05:50:53.612Z,22
2023-04-14T05:56:31.286Z,21.9
2023-04-14T06:02:25.758Z,21.8
2023-04-14T06:08:05.790Z,21.8
2023-04-14T06:13:57.534Z,21.8
2023-04-14T06:19:18.372Z,21.8
2023-04-14T06:25:09.851Z,21.7
2023-04-14T06:30:46.326Z,21.6
2023-04-14T06:36:51.525Z,22.2
2023-04-14T06:42:42.743Z,21.9
2023-04-14T06:48:36.115Z,21.8
2023-04-14T06:54:27.815Z,21.8
2023-04-14T07:00:19.954Z,21.8
2023-04-14T07:06:14.758Z,21.7
2023-04-14T07:12:06.108Z,21.7
2023-04-14T07:17:59.855Z,21.6
2023-04-14T07:23:36.302Z,22.3
2023-04-14T07:29:41.096Z,22.1
2023-04-14T07:35:33.512Z,21.9
2023-04-14T07:41:36.595Z,21.8
2023-04-14T07:47:12.470Z,21.8
2023-04-14T07:53:05.534Z,21.8
2023-04-14T07:59:04.946Z,21.6
2023-04-14T08:04:42.829Z,22.1
2023-04-14T08:10:34.677Z,22.2
2023-04-14T08:15:55.333Z,22
2023-04-14T08:21:16.590Z,21.9
2023-04-14T08:26:53.252Z,21.8
2023-04-14T08:32:45.765Z,21.9
2023-04-14T08:39:36.940Z,22.3
2023-04-14T08:45:29.411Z,22.1
2023-04-14T08:51:22.739Z,22
2023-04-14T08:56:59.169Z,21.9
2023-04-14T09:02:52.869Z,22
2023-04-14T09:08:47.025Z,22.4
2023-04-14T09:14:37.897Z,22.2
2023-04-14T09:22:25.404Z,22.1
2023-04-14T09:28:16.641Z,22
2023-04-14T09:33:52.541Z,21.9
2023-04-14T09:39:28.643Z,21.9
2023-04-14T09:45:20.403Z,21.9
2023-04-14T09:50:56.675Z,21.9
2023-04-14T09:56:49.941Z,21.9
2023-04-14T10:02:42.857Z,21.8
2023-04-14T10:08:20.889Z,21.8
2023-04-14T10:14:12.189Z,21.8
2023-04-14T10:20:04.604Z,21.6
2023-04-14T10:25:57.570Z,21.6
2023-04-14T10:31:51.217Z,21.6
2023-04-14T10:37:43.761Z,21.5
2023-04-14T10:43:19.331Z,21.4
2023-04-14T10:49:10.698Z,21.4
2023-04-14T10:54:48.760Z,21.3
2023-04-14T11:00:55.165Z,21.3
2023-04-14T11:06:49.026Z,21.2
2023-04-14T11:18:29.188Z,21.1
2023-04-14T11:24:21.177Z,21
2023-04-14T11:30:12.855Z,20.9
2023-04-14T11:36:06.187Z,20.9
2023-04-14T11:41:42.537Z,20.9
2023-04-14T11:47:34.842Z,20.8
2023-04-14T11:53:10.621Z,20.8
2023-04-14T11:59:02.618Z,20.7
2023-04-14T12:04:40.549Z,20.7
2023-04-14T12:10:20.030Z,20.6
2023-04-14T12:16:12.190Z,20.6
2023-04-14T12:21:18.232Z,20.6
2023-04-14T12:26:54.759Z,20.6
2023-04-14T12:32:46.553Z,20.4
2023-04-14T12:38:40.033Z,20.4
2023-04-14T12:44:15.861Z,20.3
2023-04-14T12:50:08.902Z,20.3
2023-04-14T12:56:00.818Z,20.2
2023-04-14T13:01:53.029Z,20.1
2023-04-14T13:07:48.861Z,20.1
2023-04-14T13:13:42.367Z,20.1
2023-04-14T13:20:30.170Z,20.1
2023-04-14T13:26:23.197Z,20
2023-04-14T13:31:59.927Z,20
2023-04-14T13:37:52.620Z,20
2023-04-14T13:43:46.963Z,20
2023-04-14T13:49:42.425Z,20
2023-04-14T13:55:34.190Z,19.9
2023-04-14T14:01:28.682Z,19.9
2023-04-14T14:07:24.214Z,19.9
2023-04-14T14:13:18.796Z,19.9
2023-04-14T14:19:05.214Z,19.9
2023-04-14T14:24:42.222Z,19.9
2023-04-14T14:30:46.445Z,19.9
2023-04-14T14:36:42.166Z,19.9
2023-04-14T14:42:34.793Z,19.9
2023-04-14T14:48:32.178Z,19.9
2023-04-14T14:54:42.621Z,19.9
2023-04-14T15:00:20.341Z,19.9
2023-04-14T15:06:14.104Z,19.8
2023-04-14T15:12:05.677Z,19.8
2023-04-14T15:17:58.165Z,19.8
2023-04-14T15:23:49.625Z,19.8
2023-04-14T15:29:40.868Z,19.8
2023-04-14T15:35:33.276Z,19.8
2023-04-14T15:41:25.442Z,19.8
2023-04-14T15:47:19.626Z,19.8
2023-04-14T15:53:30.105Z,19.8
2023-04-14T15:59:22.216Z,19.8
2023-04-14T16:05:15.847Z,19.8
2023-04-14T16:11:08.006Z,19.8
2023-04-14T16:17:01.260Z,19.8
2023-04-14T16:22:54.349Z,19.8
2023-04-14T16:28:46.674Z,19.8
2023-04-14T16:34:38.574Z,19.8
2023-04-14T16:40:30.228Z,19.8
2023-04-14T16:46:21.880Z,19.8
2023-04-14T16:52:14.631Z,19.8
2023-04-14T16:58:06.631Z,19.8
2023-04-14T17:04:02.698Z,19.8
2023-04-14T17:09:56.019Z,19.8
2023-04-14T17:15:51.245Z,19.8
2023-04-14T17:21:48.733Z,19.8
2023-04-14T17:27:40.541Z,19.8
2023-04-14T17:33:32.609Z,19.8
2023-04-14T17:39:24.423Z,19.8
2023-04-14T17:45:15.816Z,19.8
2023-04-14T17:50:53.804Z,19.8
2023-04-14T17:56:45.809Z,19.8
2023-04-14T18:02:37.874Z,19.8
2023-04-14T18:08:30.948Z,19.8
2023-04-14T18:14:22.621Z,19.8
2023-04-14T18:20:14.128Z,19.8
2023-04-14T18:32:23.383Z,19.8
2023-04-14T18:38:15.343Z,19.7
2023-04-14T18:44:06.739Z,19.7
2023-04-14T18:49:43.172Z,19.7
2023-04-14T18:55:41.349Z,19.7
2023-04-14T19:01:21.420Z,19.7
2023-04-14T19:07:14.335Z,19.7
2023-04-14T19:13:01.944Z,19.7
2023-04-14T19:18:38.530Z,19.7
2023-04-14T19:24:14.756Z,19.7
2023-04-14T19:29:52.421Z,19.7
2023-04-14T19:35:29.073Z,19.7
2023-04-14T19:41:21.040Z,19.6
2023-04-14T19:46:57.394Z,19.6
2023-04-14T19:53:00.973Z,19.7
2023-04-14T19:58:54.311Z,19.6
2023-04-14T20:05:17.864Z,19.6
2023-04-14T20:11:09.679Z,19.6
2023-04-14T20:17:01.130Z,19.6
2023-04-14T20:22:53.137Z,19.6
2023-04-14T20:28:44.802Z,19.6
2023-04-14T20:34:37.076Z,19.6
2023-04-14T20:40:28.341Z,19.8
2023-04-14T20:46:19.734Z,20
2023-04-14T20:51:56.247Z,20.9
2023-04-14T20:57:46.833Z,21.3
2023-04-14T21:03:39.609Z,20.9
2023-04-14T21:09:32.579Z,21.3
2023-04-14T21:19:28.370Z,22.3
2023-04-14T21:25:19.848Z,22.1
2023-04-14T21:31:10.995Z,21.6
2023-04-14T21:36:47.161Z,22.3
2023-04-14T21:42:23.571Z,22.8
2023-04-14T21:48:14.435Z,22.4
2023-04-14T21:54:07.857Z,22.2
2023-04-14T22:00:49.069Z,22
2023-04-14T22:06:52.498Z,22.8
2023-04-14T22:12:45.151Z,22.9
2023-04-14T22:18:22.068Z,22.6
2023-04-14T22:23:57.579Z,22.4
2023-04-14T22:29:49.797Z,22.3
2023-04-14T22:35:10.941Z,22.9
2023-04-14T22:41:02.619Z,23.1
2023-04-14T22:46:54.664Z,22.8
2023-04-14T22:52:46.907Z,22.6
2023-04-14T22:58:44.214Z,22.4
2023-04-14T23:04:48.531Z,22.8
2023-04-14T23:10:40.766Z,23.3
2023-04-14T23:16:31.557Z,23
2023-04-14T23:22:22.368Z,22.8
2023-04-14T23:28:14.645Z,22.7
2023-04-14T23:33:50.617Z,22.6
2023-04-14T23:39:42.539Z,23.3
2023-04-14T23:45:33.841Z,23.3
2023-04-14T23:52:24.011Z,23
